Time;durP1;ratioP1;P1;durP2;ratioP2;P2;SDS_P1;SDS_P2;PMS_P1;PMS_P2;Temp;Humidity;BMP_temperature;BMP_pressure;BME280_temperature;BME280_humidity;BME280_pressure;Samples;Min_cycle;Max_cycle;Signal;HPM_P1;HPM_P2
2024/04/19 00:02:14;;;;;;;6.95;2.55;;;6.10;99.90;;;;;;5513825;26;20560;-84
2024/04/19 00:04:41;;;;;;;5.13;2.20;;;6.20;99.90;;;;;;5467954;26;20047;-83
2024/04/19 00:07:07;;;;;;;4.15;2.10;;;6.80;99.90;;;;;;5445903;26;20899;-84
2024/04/19 00:09:34;;;;;;;4.72;2.33;;;6.50;99.90;;;;;;5468698;26;20007;-84
2024/04/19 00:12:01;;;;;;;3.47;1.90;;;6.40;99.90;;;;;;5462880;26;20007;-84
2024/04/19 00:14:28;;;;;;;4.00;2.10;;;6.60;99.90;;;;;;5469655;26;20094;-85
2024/04/19 00:16:54;;;;;;;5.30;2.40;;;6.80;99.90;;;;;;5461425;26;20080;-84
2024/04/19 00:19:22;;;;;;;4.38;2.00;;;6.10;99.90;;;;;;5453338;26;20012;-84
2024/04/19 00:22:08;;;;;;;3.80;1.88;;;6.00;99.90;;;;;;5428702;26;20018;-84
2024/04/19 00:24:35;;;;;;;4.20;1.80;;;6.70;99.90;;;;;;5461077;26;20383;-85
2024/04/19 00:27:02;;;;;;;4.53;2.10;;;6.90;99.90;;;;;;5452846;26;20351;-84
2024/04/19 00:29:29;;;;;;;4.75;2.35;;;6.00;99.90;;;;;;5429059;26;20448;-84
2024/04/19 00:31:56;;;;;;;3.67;2.00;;;6.40;99.90;;;;;;5475730;26;20014;-84
2024/04/19 00:34:22;;;;;;;6.93;2.28;;;6.00;99.90;;;;;;5478552;26;20007;-84
2024/04/19 00:36:49;;;;;;;4.85;2.50;;;6.40;99.90;;;;;;5455904;26;20022;-84
2024/04/19 00:39:16;;;;;;;6.22;2.72;;;6.00;99.90;;;;;;5459429;26;20007;-85
2024/04/19 00:41:45;;;;;;;8.40;2.83;;;6.00;99.90;;;;;;5466379;26;20007;-85
2024/04/19 00:44:12;;;;;;;7.13;2.60;;;6.80;99.90;;;;;;5468119;26;20030;-84
2024/04/19 00:46:46;;;;;;;4.78;2.40;;;6.00;99.90;;;;;;5464209;26;20007;-84
2024/04/19 00:49:13;;;;;;;4.50;2.55;;;6.00;99.90;;;;;;5457421;26;20025;-84
2024/04/19 00:51:40;;;;;;;5.25;2.67;;;6.00;99.90;;;;;;5443077;26;20003;-84
2024/04/19 00:54:07;;;;;;;5.53;2.85;;;6.50;99.90;;;;;;5439126;26;20044;-84
2024/04/19 00:56:35;;;;;;;6.10;2.90;;;6.80;99.90;;;;;;5451869;26;20034;-84
2024/04/19 00:59:02;;;;;;;8.40;3.05;;;5.20;99.90;;;;;;5450182;26;20490;-84
2024/04/19 01:01:29;;;;;;;5.35;2.92;;;6.00;99.90;;;;;;5469642;26;20008;-84
2024/04/19 01:03:56;;;;;;;5.45;3.20;;;6.00;99.90;;;;;;5456620;26;20007;-85
2024/04/19 01:06:43;;;;;;;9.70;3.78;;;6.00;99.90;;;;;;5447188;26;20452;-84
2024/04/19 01:09:09;;;;;;;6.38;3.65;;;6.00;99.90;;;;;;5483663;26;20021;-84
2024/04/19 01:11:36;;;;;;;7.75;3.80;;;6.70;99.90;;;;;;5465078;26;20353;-85
2024/04/19 01:14:03;;;;;;;7.38;3.90;;;5.90;99.90;;;;;;5466543;26;20007;-84
2024/04/19 01:16:30;;;;;;;7.53;4.00;;;6.20;99.90;;;;;;5456611;26;20007;-84
2024/04/19 01:18:57;;;;;;;7.20;3.50;;;6.00;99.90;;;;;;5461803;26;20007;-84
2024/04/19 01:21:25;;;;;;;6.75;3.80;;;6.70;99.90;;;;;;5426974;26;20003;-85
2024/04/19 01:24:00;;;;;;;6.72;3.63;;;6.60;99.90;;;;;;5441887;26;20004;-84
2024/04/19 01:26:27;;;;;;;6.20;3.70;;;6.00;99.90;;;;;;5453831;26;20004;-84
2024/04/19 01:28:54;;;;;;;6.75;3.95;;;6.60;99.90;;;;;;5457145;26;20084;-85
2024/04/19 01:31:20;;;;;;;8.35;4.05;;;6.00;99.90;;;;;;5470527;26;20466;-86
2024/04/19 01:33:47;;;;;;;7.13;3.90;;;6.70;99.90;;;;;;5471717;26;20023;-84
2024/04/19 01:36:14;;;;;;;8.93;4.20;;;6.00;99.90;;;;;;5442989;26;20081;-85
2024/04/19 01:38:41;;;;;;;9.07;3.90;;;6.00;99.90;;;;;;5448475;26;20007;-84
2024/04/19 01:41:07;;;;;;;6.70;3.83;;;6.60;99.90;;;;;;5459362;26;20022;-84
2024/04/19 01:43:35;;;;;;;10.68;3.88;;;6.10;99.90;;;;;;5460346;26;20049;-84
2024/04/19 01:46:02;;;;;;;8.82;4.15;;;6.80;99.90;;;;;;5466731;26;20008;-84
2024/04/19 01:48:29;;;;;;;7.90;3.92;;;6.10;99.90;;;;;;5454783;26;20084;-84
2024/04/19 01:50:55;;;;;;;10.52;4.10;;;6.10;99.90;;;;;;5474666;26;20464;-84
2024/04/19 01:53:22;;;;;;;8.15;3.65;;;6.10;99.90;;;;;;5463202;26;20084;-84
2024/04/19 01:55:49;;;;;;;6.32;3.50;;;6.10;99.90;;;;;;5460051;26;20017;-85
2024/04/19 01:58:16;;;;;;;7.45;3.22;;;6.20;99.90;;;;;;5446509;26;20015;-85
2024/04/19 02:00:42;;;;;;;8.02;3.38;;;6.20;99.90;;;;;;5471929;26;20015;-85
2024/04/19 02:03:09;;;;;;;5.70;3.05;;;6.20;99.90;;;;;;5455511;26;20636;-85
2024/04/19 02:05:36;;;;;;;9.25;3.90;;;6.20;99.90;;;;;;5551715;25;20045;-85
2024/04/19 02:08:03;;;;;;;9.40;3.88;;;6.20;99.90;;;;;;5490579;26;20080;-84
2024/04/19 02:10:34;;;;;;;7.40;3.55;;;6.20;99.90;;;;;;5474102;26;20006;-84
2024/04/19 02:13:01;;;;;;;8.65;3.92;;;6.90;99.90;;;;;;5504094;26;20006;-84
2024/04/19 02:15:28;;;;;;;8.05;3.92;;;6.20;99.90;;;;;;5500526;26;20006;-85
2024/04/19 02:17:55;;;;;;;8.70;3.97;;;6.30;99.90;;;;;;5527497;26;20006;-84
2024/04/19 02:20:41;;;;;;;7.63;4.25;;;6.30;99.90;;;;;;5483109;26;20043;-85
2024/04/19 02:23:09;;;;;;;9.82;3.90;;;6.80;99.90;;;;;;5529161;26;20009;-85
2024/04/19 02:25:36;;;;;;;6.47;3.88;;;7.40;99.90;;;;;;5533868;26;20006;-85
2024/04/19 02:30:59;;;;;;;6.60;3.83;;;6.30;99.90;;;;;;5553373;26;20021;-85
2024/04/19 02:33:27;;;;;;;8.30;4.10;;;6.30;99.90;;;;;;5521837;26;20074;-85
2024/04/19 02:35:53;;;;;;;9.70;4.18;;;7.00;99.90;;;;;;5485052;26;20367;-85
2024/04/19 02:38:23;;;;;;;8.05;3.50;;;6.30;99.90;;;;;;5497526;26;20042;-85
2024/04/19 02:40:49;;;;;;;7.50;3.78;;;6.30;99.90;;;;;;5504138;26;20467;-85
2024/04/19 02:43:36;;;;;;;6.22;3.35;;;6.40;99.90;;;;;;5481904;26;20017;-85
2024/04/19 02:46:04;;;;;;;5.97;3.20;;;6.40;99.90;;;;;;5502568;26;20006;-85
2024/04/19 02:48:32;;;;;;;5.55;3.33;;;6.60;99.90;;;;;;5478675;26;20056;-85
2024/04/19 02:51:01;;;;;;;5.45;3.20;;;6.70;99.90;;;;;;5490586;26;20086;-85
2024/04/19 02:53:28;;;;;;;6.07;3.28;;;6.40;99.90;;;;;;5527490;26;20006;-85
2024/04/19 02:55:55;;;;;;;5.38;3.35;;;6.70;99.90;;;;;;5528629;26;20020;-84
2024/04/19 02:58:22;;;;;;;6.18;3.47;;;7.20;99.90;;;;;;5490378;26;20218;-85
2024/04/19 03:00:48;;;;;;;5.00;2.90;;;7.00;99.90;;;;;;5522714;26;20045;-85
2024/04/19 03:03:15;;;;;;;5.35;3.30;;;7.00;99.90;;;;;;5564055;26;20462;-85
2024/04/19 03:05:43;;;;;;;6.28;3.40;;;6.40;99.90;;;;;;5533944;26;20006;-85
2024/04/19 03:08:10;;;;;;;5.78;2.92;;;6.40;99.90;;;;;;5532257;26;20017;-84
2024/04/19 03:11:00;;;;;;;7.57;3.00;;;6.30;99.90;;;;;;5475289;26;20075;-84
2024/04/19 03:13:27;;;;;;;5.32;3.00;;;6.50;99.90;;;;;;5528550;26;20006;-85
2024/04/19 03:16:14;;;;;;;4.63;2.90;;;6.70;99.90;;;;;;5476371;26;20002;-85
2024/04/19 03:18:41;;;;;;;5.22;3.08;;;6.90;99.90;;;;;;5571369;25;20439;-85
2024/04/19 03:21:28;;;;;;;5.50;2.97;;;6.90;99.90;;;;;;5476615;26;20002;-85
2024/04/19 03:23:56;;;;;;;5.90;2.67;;;7.00;99.90;;;;;;5510795;26;20071;-85
2024/04/19 03:26:23;;;;;;;4.88;2.15;;;7.30;99.90;;;;;;5495996;26;20018;-85
2024/04/19 03:28:51;;;;;;;3.90;2.20;;;6.60;99.90;;;;;;5496481;26;20082;-85
2024/04/19 03:31:17;;;;;;;4.10;2.08;;;7.40;99.90;;;;;;5565798;26;20020;-85
2024/04/19 03:33:44;;;;;;;6.00;2.15;;;7.50;99.90;;;;;;5529001;26;20006;-85
2024/04/19 03:36:11;;;;;;;4.05;1.70;;;6.90;99.90;;;;;;5508174;26;20353;-85
2024/04/19 03:38:40;;;;;;;2.70;1.60;;;6.80;99.90;;;;;;5540882;26;20021;-85
2024/04/19 03:41:07;;;;;;;2.88;1.70;;;7.10;99.90;;;;;;5550723;26;20006;-85
2024/04/19 03:46:50;;;;;;;3.53;1.30;;;7.00;99.90;;;;;;5435687;26;20011;-85
2024/04/19 03:49:36;;;;;;;5.47;1.20;;;6.90;99.90;;;;;;5495914;26;20013;-85
2024/04/19 03:52:03;;;;;;;3.28;1.20;;;7.60;99.90;;;;;;5508027;26;20006;-86
2024/04/19 03:54:32;;;;;;;4.13;1.42;;;7.00;99.90;;;;;;5507246;26;20073;-86
2024/04/19 03:56:59;;;;;;;2.67;1.40;;;7.20;99.90;;;;;;5484333;26;20006;-85
2024/04/19 03:59:39;;;;;;;3.60;1.30;;;7.10;99.90;;;;;;5488454;26;20446;-85
2024/04/19 04:02:06;;;;;;;3.78;1.30;;;7.30;99.90;;;;;;5495015;26;20052;-85
2024/04/19 04:04:34;;;;;;;3.28;1.25;;;7.10;99.90;;;;;;5495795;26;20010;-85
2024/04/19 04:07:01;;;;;;;2.50;1.38;;;7.20;99.90;;;;;;5489895;26;20079;-85
2024/04/19 04:09:29;;;;;;;2.45;1.20;;;7.20;99.90;;;;;;5528952;26;20017;-85
2024/04/19 04:11:55;;;;;;;3.47;1.20;;;7.20;99.90;;;;;;5492962;26;20005;-85
2024/04/19 04:14:22;;;;;;;2.58;1.33;;;7.30;99.90;;;;;;5522870;26;20022;-85
2024/04/19 04:16:49;;;;;;;2.85;1.50;;;7.60;99.90;;;;;;5527919;26;20026;-86
2024/04/19 04:19:19;;;;;;;2.60;1.30;;;7.80;99.90;;;;;;5493286;26;20043;-85
2024/04/19 04:21:45;;;;;;;3.67;1.70;;;7.30;99.90;;;;;;5544926;26;20371;-86
2024/04/19 04:24:13;;;;;;;4.13;1.45;;;7.30;99.90;;;;;;5495834;26;20046;-85
2024/04/19 04:26:40;;;;;;;10.07;1.75;;;7.80;99.90;;;;;;5474870;26;20006;-85
2024/04/19 04:29:07;;;;;;;4.75;1.55;;;7.90;99.90;;;;;;5537799;25;20006;-85
2024/04/19 04:31:34;;;;;;;4.25;1.60;;;7.40;99.90;;;;;;5529609;26;20002;-86
2024/04/19 04:34:00;;;;;;;3.88;1.80;;;7.50;99.90;;;;;;5505426;26;20007;-85
2024/04/19 04:36:27;;;;;;;5.53;1.67;;;7.50;99.90;;;;;;5494255;26;20017;-85
2024/04/19 04:38:54;;;;;;;6.22;1.83;;;8.10;99.90;;;;;;5529609;26;20006;-85
2024/04/19 04:41:21;;;;;;;7.03;2.08;;;7.50;99.90;;;;;;5512433;26;20006;-85
2024/04/19 04:43:48;;;;;;;7.38;3.20;;;7.60;99.90;;;;;;5519871;26;20006;-86
2024/04/19 04:46:15;;;;;;;8.85;2.25;;;7.60;99.90;;;;;;5527058;26;20446;-85
2024/04/19 04:48:41;;;;;;;5.88;2.30;;;7.60;99.90;;;;;;5519654;26;20081;-85
2024/04/19 04:51:08;;;;;;;10.77;2.28;;;7.70;99.90;;;;;;5529048;26;20010;-86
2024/04/19 04:53:35;;;;;;;10.68;2.50;;;8.40;99.90;;;;;;5499050;26;20006;-85
2024/04/19 04:56:02;;;;;;;10.18;2.13;;;7.70;99.90;;;;;;5537593;26;20022;-85
2024/04/19 04:58:29;;;;;;;10.85;2.40;;;7.80;99.90;;;;;;5516447;26;20006;-85
2024/04/19 05:00:56;;;;;;;16.23;2.20;;;8.00;99.90;;;;;;5530940;26;20014;-85
2024/04/19 05:03:22;;;;;;;13.50;2.20;;;7.90;99.90;;;;;;5519234;26;20078;-85
2024/04/19 05:05:49;;;;;;;14.60;2.38;;;7.90;99.90;;;;;;5543025;26;20371;-85
2024/04/19 05:08:16;;;;;;;11.18;2.70;;;7.90;99.90;;;;;;5500232;26;20021;-84
2024/04/19 05:10:43;;;;;;;13.88;2.30;;;7.90;99.90;;;;;;5530259;26;20078;-85
2024/04/19 05:13:10;;;;;;;19.05;2.60;;;7.90;99.90;;;;;;5530584;26;20010;-85
2024/04/19 05:15:36;;;;;;;17.15;2.90;;;7.90;99.90;;;;;;5508580;26;20365;-85
2024/04/19 05:18:03;;;;;;;15.73;2.13;;;8.50;99.90;;;;;;5567271;25;20020;-85
2024/04/19 05:20:30;;;;;;;12.27;1.95;;;7.90;99.90;;;;;;5522656;26;20006;-85
2024/04/19 05:22:57;;;;;;;15.43;2.47;;;8.00;99.90;;;;;;5493685;26;20006;-85
2024/04/19 05:25:24;;;;;;;13.55;2.45;;;8.20;99.90;;;;;;5498247;26;20014;-85
2024/04/19 05:27:51;;;;;;;11.13;2.00;;;8.00;99.90;;;;;;5524662;26;20006;-85
2024/04/19 05:30:18;;;;;;;18.55;3.88;;;8.00;99.90;;;;;;5540970;26;20006;-85
2024/04/19 05:32:44;;;;;;;15.88;2.17;;;8.40;99.90;;;;;;5510553;26;20006;-85
2024/04/19 05:35:11;;;;;;;9.18;1.60;;;8.30;99.90;;;;;;5498811;26;20020;-86
2024/04/19 05:37:38;;;;;;;9.40;1.60;;;8.70;99.90;;;;;;5499282;26;20010;-85
2024/04/19 05:40:05;;;;;;;12.25;2.00;;;8.00;99.90;;;;;;5537531;26;20006;-85
2024/04/19 05:42:33;;;;;;;12.60;2.15;;;8.00;99.90;;;;;;5473858;26;20086;-85
2024/04/19 05:44:59;;;;;;;11.02;2.00;;;8.40;99.90;;;;;;5505586;26;20072;-85
2024/04/19 05:47:26;;;;;;;11.05;1.90;;;8.00;99.90;;;;;;5528981;26;20350;-85
2024/04/19 05:49:53;;;;;;;13.90;2.17;;;8.10;99.90;;;;;;5513243;26;20478;-85
2024/04/19 05:52:19;;;;;;;20.60;2.40;;;8.20;99.90;;;;;;5474850;26;20022;-84
2024/04/19 05:54:46;;;;;;;15.15;2.03;;;8.10;99.90;;;;;;5529177;26;20014;-84
2024/04/19 05:57:15;;;;;;;14.05;2.05;;;8.10;99.90;;;;;;5476941;26;20007;-84
2024/04/19 05:59:41;;;;;;;14.70;1.90;;;8.90;99.90;;;;;;5497361;26;20033;-84
2024/04/19 06:02:08;;;;;;;15.20;2.15;;;8.20;99.90;;;;;;5521987;26;20020;-84
2024/04/19 06:04:35;;;;;;;12.38;2.42;;;8.20;99.90;;;;;;5549171;26;20006;-85
2024/04/19 06:07:02;;;;;;;17.42;2.42;;;8.20;99.90;;;;;;5497081;26;20081;-85
2024/04/19 06:09:28;;;;;;;13.02;1.80;;;8.20;99.90;;;;;;5558002;26;20006;-84
2024/04/19 06:11:55;;;;;;;18.98;2.58;;;8.60;99.90;;;;;;5554607;26;20006;-85
2024/04/19 06:14:22;;;;;;;15.25;2.08;;;8.40;99.90;;;;;;5513541;26;20474;-85
2024/04/19 06:16:51;;;;;;;18.98;2.25;;;9.20;99.90;;;;;;5554433;26;20369;-85
2024/04/19 06:19:18;;;;;;;8.93;1.95;;;9.00;99.90;;;;;;5500072;26;20021;-85
2024/04/19 06:21:45;;;;;;;15.55;2.03;;;8.30;99.90;;;;;;5487404;26;20006;-85
2024/04/19 06:24:12;;;;;;;11.45;2.30;;;8.40;99.90;;;;;;5508802;26;20045;-85
2024/04/19 06:26:39;;;;;;;9.18;1.60;;;8.90;99.90;;;;;;5509512;26;20684;-84
2024/04/19 06:29:06;;;;;;;13.55;2.35;;;8.40;99.90;;;;;;5543213;26;20021;-87
2024/04/19 06:31:33;;;;;;;12.77;1.95;;;8.50;99.90;;;;;;5485861;26;20050;-87
2024/04/19 06:33:59;;;;;;;14.13;1.60;;;8.40;99.90;;;;;;5503336;26;20006;-87
2024/04/19 06:36:26;;;;;;;9.57;1.63;;;8.40;99.90;;;;;;5525608;26;20013;-87
2024/04/19 06:38:53;;;;;;;12.45;1.60;;;8.30;99.90;;;;;;5512307;26;20016;-87
2024/04/19 06:41:20;;;;;;;9.52;1.83;;;8.30;99.90;;;;;;5500315;26;20359;-87
2024/04/19 06:43:46;;;;;;;17.00;2.20;;;8.40;99.90;;;;;;5498822;26;20081;-87
2024/04/19 06:46:13;;;;;;;10.20;1.90;;;8.60;99.90;;;;;;5483846;26;20017;-87
2024/04/19 06:48:40;;;;;;;11.52;2.20;;;8.40;99.90;;;;;;5501616;26;20342;-86
2024/04/19 06:51:07;;;;;;;9.20;1.70;;;8.80;99.90;;;;;;5499125;26;20034;-87
2024/04/19 06:53:34;;;;;;;10.13;1.40;;;8.50;99.90;;;;;;5508781;25;20362;-87
2024/04/19 06:56:00;;;;;;;9.20;1.60;;;9.00;99.90;;;;;;5507727;26;20802;-87
2024/04/19 06:58:27;;;;;;;13.02;2.30;;;9.10;99.90;;;;;;5470568;26;20448;-85
2024/04/19 07:00:54;;;;;;;11.70;1.63;;;8.50;99.90;;;;;;5551905;26;20016;-88
2024/04/19 07:03:21;;;;;;;8.68;1.75;;;8.60;99.90;;;;;;5508303;26;20005;-86
2024/04/19 07:05:48;;;;;;;13.38;1.50;;;8.70;99.90;;;;;;5552500;25;20020;-87
2024/04/19 07:08:15;;;;;;;10.10;1.63;;;8.60;99.90;;;;;;5545852;26;20497;-86
2024/04/19 07:10:42;;;;;;;14.02;1.95;;;8.80;99.90;;;;;;5473038;26;20006;-88
2024/04/19 07:13:08;;;;;;;14.98;1.85;;;8.80;99.90;;;;;;5519646;26;20021;-87
2024/04/19 07:15:35;;;;;;;9.57;1.60;;;8.60;99.90;;;;;;5473133;26;20007;-87
2024/04/19 07:18:02;;;;;;;10.25;1.23;;;8.70;99.90;;;;;;5533992;26;20362;-87
2024/04/19 07:20:29;;;;;;;11.13;1.50;;;8.70;99.90;;;;;;5531654;26;20006;-87
2024/04/19 07:22:55;;;;;;;12.10;2.13;;;8.90;99.90;;;;;;5498026;26;20006;-87
2024/04/19 07:25:22;;;;;;;8.88;1.58;;;9.00;99.90;;;;;;5495322;26;20457;-87
2024/04/19 07:27:50;;;;;;;11.75;1.50;;;9.20;99.90;;;;;;5515391;26;20473;-86
2024/04/19 07:30:16;;;;;;;13.57;1.75;;;9.70;99.90;;;;;;5506224;26;20020;-87
2024/04/19 07:32:43;;;;;;;7.55;1.55;;;9.40;99.90;;;;;;5516992;26;20006;-87
2024/04/19 07:35:10;;;;;;;13.82;1.70;;;9.40;99.90;;;;;;5480918;26;20011;-87
2024/04/19 07:37:36;;;;;;;12.30;1.88;;;9.40;99.90;;;;;;5542002;25;20034;-85
2024/04/19 07:40:04;;;;;;;8.85;1.40;;;9.40;99.90;;;;;;5513155;26;20547;-86
2024/04/19 07:42:32;;;;;;;12.32;1.55;;;9.50;99.90;;;;;;5528021;26;20005;-86
2024/04/19 07:44:59;;;;;;;6.07;1.45;;;9.50;99.90;;;;;;5529970;26;20021;-86
2024/04/19 07:47:27;;;;;;;10.00;1.90;;;9.40;99.90;;;;;;5527805;26;20034;-86
2024/04/19 07:49:54;;;;;;;6.93;1.33;;;9.40;99.90;;;;;;5515850;26;20018;-86
2024/04/19 07:52:21;;;;;;;6.53;1.00;;;9.20;99.90;;;;;;5452696;26;20006;-87
2024/04/19 07:54:48;;;;;;;6.82;1.25;;;9.00;99.90;;;;;;5489247;26;20501;-86
2024/04/19 07:57:14;;;;;;;4.75;1.20;;;9.00;99.90;;;;;;5487250;26;20021;-86
2024/04/19 07:59:41;;;;;;;7.40;1.05;;;8.90;99.90;;;;;;5540526;26;20017;-90
2024/04/19 08:02:08;;;;;;;4.95;0.98;;;8.90;99.90;;;;;;5466193;26;20022;-88
2024/04/19 08:04:35;;;;;;;5.28;1.45;;;9.70;99.90;;;;;;5528163;26;20055;-88
2024/04/19 08:07:01;;;;;;;4.60;1.48;;;9.00;99.90;;;;;;5475196;26;20042;-86
2024/04/19 08:09:28;;;;;;;6.60;1.10;;;9.00;99.90;;;;;;5524385;26;20362;-87
2024/04/19 08:11:55;;;;;;;6.10;1.30;;;9.20;99.90;;;;;;5500002;26;20005;-86
2024/04/19 08:14:22;;;;;;;8.75;1.58;;;9.70;99.90;;;;;;5527370;26;20054;-86
2024/04/19 08:16:48;;;;;;;8.13;1.55;;;9.40;99.90;;;;;;5466128;26;20023;-86
2024/04/19 08:19:15;;;;;;;9.20;1.80;;;9.50;99.90;;;;;;5511747;26;20347;-86
2024/04/19 08:21:42;;;;;;;8.43;1.60;;;9.60;99.90;;;;;;5503512;26;20439;-86
2024/04/19 08:24:09;;;;;;;10.75;2.28;;;9.70;99.90;;;;;;5513628;26;20361;-87
2024/04/19 08:26:35;;;;;;;10.10;1.85;;;10.00;99.90;;;;;;5494461;26;20006;-87
2024/04/19 08:29:03;;;;;;;14.10;2.05;;;10.10;99.90;;;;;;5505367;26;20446;-87
2024/04/19 08:31:30;;;;;;;10.23;1.95;;;10.20;99.90;;;;;;5489937;26;20006;-87
2024/04/19 08:33:56;;;;;;;11.98;2.20;;;10.30;99.90;;;;;;5495304;26;20026;-88
2024/04/19 08:36:23;;;;;;;9.38;1.70;;;10.20;99.90;;;;;;5498337;26;20455;-88
2024/04/19 08:38:50;;;;;;;8.68;1.60;;;10.10;99.90;;;;;;5478308;26;20017;-90
2024/04/19 08:41:19;;;;;;;8.48;1.50;;;10.20;99.90;;;;;;5545701;26;20005;-89
2024/04/19 08:43:46;;;;;;;5.55;1.60;;;10.50;99.90;;;;;;5525739;26;20007;-90
2024/04/19 08:46:13;;;;;;;6.53;1.50;;;10.30;99.90;;;;;;5545395;26;20352;-88
2024/04/19 08:48:42;;;;;;;9.50;1.30;;;10.40;99.90;;;;;;5479324;26;20034;-89
2024/04/19 08:51:13;;;;;;;8.88;1.80;;;10.40;99.90;;;;;;5467098;26;20005;-88
2024/04/19 08:53:42;;;;;;;7.78;1.40;;;10.50;99.90;;;;;;5466332;26;20006;-88
2024/04/19 08:56:11;;;;;;;12.38;2.20;;;10.60;99.90;;;;;;5491786;26;20495;-88
2024/04/19 08:58:37;;;;;;;7.78;2.08;;;10.60;99.90;;;;;;5494844;26;20359;-87
2024/04/19 09:01:04;;;;;;;11.75;2.17;;;10.60;99.90;;;;;;5519040;26;20017;-88
2024/04/19 09:03:31;;;;;;;7.43;1.70;;;10.70;99.90;;;;;;5517150;26;20017;-87
2024/04/19 09:05:59;;;;;;;6.85;1.70;;;10.80;99.90;;;;;;5506689;26;20470;-87
2024/04/19 09:08:26;;;;;;;9.98;1.85;;;10.70;99.90;;;;;;5478226;26;20011;-87
2024/04/19 09:10:53;;;;;;;10.65;2.25;;;10.70;99.90;;;;;;5510981;26;20006;-87
2024/04/19 09:13:19;;;;;;;6.63;1.20;;;10.90;99.90;;;;;;5551265;26;20563;-87
2024/04/19 09:15:47;;;;;;;6.32;1.38;;;10.70;99.90;;;;;;5507423;26;20009;-87
2024/04/19 09:18:13;;;;;;;7.88;1.55;;;10.80;99.90;;;;;;5536052;26;20078;-87
2024/04/19 09:20:47;;;;;;;7.88;1.85;;;10.80;99.90;;;;;;5480804;26;20413;-87
2024/04/19 09:23:16;;;;;;;10.52;2.17;;;10.60;99.90;;;;;;5516340;26;20013;-87
2024/04/19 09:25:42;;;;;;;7.78;1.75;;;10.50;99.90;;;;;;5529087;26;20371;-87
2024/04/19 09:28:12;;;;;;;10.23;2.13;;;10.40;99.90;;;;;;5494415;26;20082;-87
2024/04/19 09:30:41;;;;;;;8.30;1.77;;;11.10;99.90;;;;;;5493891;26;20002;-87
2024/04/19 09:33:08;;;;;;;13.05;2.20;;;10.60;99.90;;;;;;5510729;26;20085;-87
2024/04/19 09:35:35;;;;;;;7.35;2.00;;;10.60;99.90;;;;;;5504948;26;20010;-87
2024/04/19 09:38:03;;;;;;;6.93;1.30;;;10.50;99.90;;;;;;5503141;26;20017;-88
2024/04/19 09:40:32;;;;;;;6.00;1.10;;;10.30;99.90;;;;;;5497803;26;20021;-84
2024/04/19 09:43:06;;;;;;;5.45;1.17;;;10.00;99.90;;;;;;5497160;26;20107;-85
2024/04/19 09:45:42;;;;;;;8.95;1.30;;;9.50;99.90;;;;;;5497583;26;20006;-85
2024/04/19 09:48:15;;;;;;;6.50;1.05;;;9.10;99.90;;;;;;5496851;26;20092;-84
2024/04/19 09:50:49;;;;;;;3.38;1.00;;;9.00;99.90;;;;;;5534565;26;20462;-86
2024/04/19 09:53:28;;;;;;;5.63;1.50;;;8.90;99.90;;;;;;5510698;26;20038;-86
2024/04/19 09:56:08;;;;;;;5.38;1.17;;;8.80;99.90;;;;;;5500718;26;20006;-86
2024/04/19 09:58:36;;;;;;;7.18;1.20;;;8.90;99.90;;;;;;5545058;26;20014;-86
2024/04/19 10:01:03;;;;;;;4.78;1.00;;;8.90;99.90;;;;;;5538760;26;20355;-86
2024/04/19 10:03:31;;;;;;;5.25;1.30;;;9.60;99.90;;;;;;5543647;26;20006;-86
2024/04/19 10:05:58;;;;;;;4.68;1.27;;;9.80;99.90;;;;;;5507294;26;20080;-86
2024/04/19 10:08:27;;;;;;;9.73;1.50;;;9.50;99.90;;;;;;5511919;26;20439;-86
2024/04/19 10:10:55;;;;;;;8.00;1.40;;;9.40;99.90;;;;;;5514352;26;20005;-86
2024/04/19 10:13:24;;;;;;;10.55;1.70;;;9.20;99.90;;;;;;5560231;26;20021;-86
2024/04/19 10:15:50;;;;;;;6.10;1.85;;;9.30;99.90;;;;;;5552480;26;20021;-87
2024/04/19 10:18:19;;;;;;;7.25;1.40;;;9.90;99.90;;;;;;5499095;26;20006;-86
2024/04/19 10:20:47;;;;;;;7.20;1.60;;;9.70;99.90;;;;;;5531638;26;20417;-86
2024/04/19 10:23:16;;;;;;;8.10;1.90;;;9.90;99.90;;;;;;5500920;26;20022;-86
2024/04/19 10:25:45;;;;;;;5.47;1.30;;;9.70;99.90;;;;;;5509680;26;20410;-88
2024/04/19 10:28:12;;;;;;;9.38;2.17;;;9.70;99.90;;;;;;5496997;26;20002;-86
2024/04/19 10:30:42;;;;;;;7.53;1.67;;;9.70;99.90;;;;;;5514221;26;20014;-87
2024/04/19 10:33:09;;;;;;;12.55;2.13;;;9.80;99.90;;;;;;5496680;26;20006;-87
2024/04/19 10:35:44;;;;;;;9.40;1.77;;;9.90;99.90;;;;;;5496263;26;20455;-86
2024/04/19 10:38:12;;;;;;;9.63;1.80;;;9.80;99.90;;;;;;5496455;26;20108;-87
2024/04/19 10:40:39;;;;;;;7.60;1.25;;;9.70;99.90;;;;;;5474733;26;20006;-87
2024/04/19 10:43:07;;;;;;;5.25;1.33;;;9.10;99.90;;;;;;5508217;26;20017;-86
2024/04/19 10:45:35;;;;;;;5.45;1.00;;;8.70;99.90;;;;;;5488188;26;20038;-86
2024/04/19 10:48:04;;;;;;;3.80;0.95;;;8.10;99.90;;;;;;5487518;26;20010;-86
2024/04/19 10:50:31;;;;;;;2.17;0.70;;;7.90;99.90;;;;;;5532513;26;20002;-86
2024/04/19 10:52:58;;;;;;;4.65;0.98;;;8.00;99.90;;;;;;5499297;26;20351;-86
2024/04/19 10:55:27;;;;;;;6.13;1.30;;;7.80;99.90;;;;;;5495977;26;20006;-87
2024/04/19 10:57:55;;;;;;;6.45;1.30;;;8.10;99.90;;;;;;5527802;26;20447;-87
2024/04/19 11:00:23;;;;;;;11.65;1.30;;;7.90;99.90;;;;;;5551878;25;20005;-87
2024/04/19 11:02:52;;;;;;;10.18;1.45;;;8.00;99.90;;;;;;5540745;26;20076;-86
2024/04/19 11:05:19;;;;;;;7.20;1.20;;;8.20;99.90;;;;;;5509959;26;20014;-86
2024/04/19 11:07:46;;;;;;;9.27;1.85;;;8.00;99.90;;;;;;5509027;26;20020;-86
2024/04/19 11:10:13;;;;;;;9.57;1.48;;;8.60;99.90;;;;;;5500566;26;20882;-86
2024/04/19 11:12:40;;;;;;;8.20;1.60;;;8.70;99.90;;;;;;5489588;26;20007;-88
2024/04/19 11:15:07;;;;;;;9.43;1.88;;;8.80;99.90;;;;;;5512982;26;20469;-86
2024/04/19 11:17:34;;;;;;;10.07;1.70;;;8.90;99.90;;;;;;5523314;26;20034;-87
2024/04/19 11:20:01;;;;;;;8.10;1.85;;;8.90;99.90;;;;;;5504095;26;20006;-87
2024/04/19 11:22:29;;;;;;;11.52;1.98;;;9.00;99.90;;;;;;5501198;26;20005;-87
2024/04/19 11:24:57;;;;;;;13.70;2.47;;;9.10;99.90;;;;;;5491529;26;20022;-86
2024/04/19 11:27:24;;;;;;;13.10;2.13;;;9.30;99.90;;;;;;5527453;26;20002;-86
2024/04/19 11:29:51;;;;;;;12.18;2.28;;;9.40;99.90;;;;;;5528497;26;20054;-87
2024/04/19 11:32:23;;;;;;;8.77;2.20;;;9.50;99.90;;;;;;5493437;26;20002;-86
2024/04/19 11:34:50;;;;;;;10.55;2.20;;;9.60;99.90;;;;;;5493129;26;20006;-86
2024/04/19 11:37:17;;;;;;;13.00;2.15;;;9.50;99.90;;;;;;5507242;26;20021;-88
2024/04/19 11:39:46;;;;;;;9.02;2.30;;;9.50;99.90;;;;;;5509233;26;20079;-87
2024/04/19 11:42:14;;;;;;;7.72;2.22;;;9.50;99.90;;;;;;5488479;26;20020;-87
2024/04/19 11:44:44;;;;;;;9.25;2.75;;;9.60;99.90;;;;;;5527911;26;20006;-87
2024/04/19 11:47:11;;;;;;;8.27;1.92;;;9.60;99.90;;;;;;5496098;26;20960;-87
2024/04/19 11:49:40;;;;;;;13.80;2.20;;;10.30;99.90;;;;;;5501297;26;20048;-87
2024/04/19 11:52:08;;;;;;;8.70;2.53;;;9.90;99.90;;;;;;5495781;26;20079;-86
2024/04/19 11:54:35;;;;;;;11.05;2.05;;;10.00;99.90;;;;;;5535256;26;20016;-87
2024/04/19 11:57:02;;;;;;;14.45;2.38;;;10.00;99.90;;;;;;5517401;26;20373;-87
2024/04/19 11:59:29;;;;;;;11.65;2.67;;;9.90;99.90;;;;;;5507140;26;20016;-87
2024/04/19 12:01:56;;;;;;;13.20;2.30;;;9.50;99.90;;;;;;5536443;26;20006;-87
2024/04/19 12:04:22;;;;;;;9.57;2.15;;;10.10;99.90;;;;;;5532494;26;20415;-87
2024/04/19 12:06:49;;;;;;;11.63;2.42;;;9.70;99.90;;;;;;5510955;26;20036;-86
2024/04/19 12:09:16;;;;;;;10.13;2.22;;;9.80;99.90;;;;;;5480882;26;20459;-86
2024/04/19 12:11:43;;;;;;;11.90;2.30;;;10.00;99.90;;;;;;5495099;26;20006;-87
2024/04/19 12:14:11;;;;;;;12.52;2.35;;;10.20;99.90;;;;;;5556944;25;20038;-87
2024/04/19 12:16:38;;;;;;;8.48;2.20;;;10.20;99.90;;;;;;5527029;26;20078;-87
2024/04/19 12:19:05;;;;;;;6.78;2.13;;;10.30;99.90;;;;;;5495399;26;20009;-87
2024/04/19 12:21:32;;;;;;;8.88;2.03;;;10.30;99.90;;;;;;5495043;26;20032;-86
2024/04/19 12:23:59;;;;;;;8.48;2.10;;;9.70;99.90;;;;;;5500516;26;20013;-87
2024/04/19 12:26:25;;;;;;;11.57;2.42;;;9.40;99.90;;;;;;5514297;26;20470;-87
2024/04/19 12:28:52;;;;;;;8.73;2.42;;;9.20;99.90;;;;;;5510912;26;20082;-85
2024/04/19 12:31:19;;;;;;;5.15;1.70;;;9.30;99.90;;;;;;5505246;26;20046;-87
2024/04/19 12:33:46;;;;;;;8.73;2.15;;;9.80;99.90;;;;;;5523548;26;20452;-86
2024/04/19 12:36:13;;;;;;;8.93;2.30;;;9.50;99.90;;;;;;5523640;26;20024;-86
2024/04/19 12:38:40;;;;;;;13.00;3.10;;;9.40;99.90;;;;;;5529143;26;20503;-87
2024/04/19 12:41:06;;;;;;;11.45;2.58;;;9.50;99.90;;;;;;5563859;26;20005;-87
2024/04/19 12:43:34;;;;;;;13.25;2.40;;;9.50;99.90;;;;;;5507416;26;20017;-86
2024/04/19 12:46:01;;;;;;;14.57;4.55;;;9.40;99.90;;;;;;5483566;26;20434;-87
2024/04/19 12:48:28;;;;;;;11.98;1.55;;;9.50;99.90;;;;;;5555259;26;20013;-87
2024/04/19 12:50:55;;;;;;;13.57;2.85;;;9.50;99.90;;;;;;5504065;26;20020;-87
2024/04/19 12:53:22;;;;;;;16.30;2.53;;;9.60;99.90;;;;;;5506197;26;20082;-87
2024/04/19 12:55:49;;;;;;;12.75;2.13;;;9.60;99.90;;;;;;5488538;26;20390;-87
2024/04/19 12:58:15;;;;;;;12.02;2.30;;;9.70;99.90;;;;;;5538260;26;20005;-87
2024/04/19 13:00:42;;;;;;;12.43;2.10;;;9.80;99.90;;;;;;5522950;26;20006;-87
2024/04/19 13:03:09;;;;;;;12.02;2.53;;;9.70;99.90;;;;;;5547793;26;20025;-87